Miri, Malaysia

1:19 AM MYT on September 19, 2014 (GMT +0800)
Miri | Change Station
CLOSE
Current Station
Airport
Location: Miri,
Elevation: 59 ft
Nearby Weather Stations

Elev 59 ft 4.32 °N, 113.99 °E | Updated 1 hour ago

Mostly Cloudy
Mostly Cloudy
79 °F
Feels Like 79 °F
N
8
Wind Variable Wind from SSE

Today
High -- | Low -- °F
--% Chance of Precip.
Yesterday
High -- | Low -- °F
Precip. -- in
6:14 AM 6:21 PM
Waning Crescent, 26% visible
Pressure 29.86 in
Visibility 6.2 miles
Clouds Scattered Clouds 1400 ft
Mostly Cloudy 15000 ft
Dew Point 70 °F
Humidity 74%
Rainfall 0.00 in
Snow Depth Not available.
UV 0 out of 12
Pollen Not available.
Air Quality Not available.
Flu Activity Not available.
METAR WBGR 181600Z 15007KT 9999 SCT014 BKN150 26/21 Q1011

More Conditions Fewer Conditions

Pressure 29.86 in
Visibility 6.2 miles
Clouds Scattered Clouds 1400 ft
Mostly Cloudy 15000 ft
Dew Point 70 °F
Humidity 74%
Rainfall 0.00 in
Snow Depth Not available.
UV 0 out of 12
Pollen Not available.
Air Quality Not available.
Flu Activity Not available.
METAR WBGR 181600Z 15007KT 9999 SCT014 BKN150 26/21 Q1011

More Conditions Fewer Conditions

10-Day Weather Forecast

Almanac

Astronomy

Sep. 19, 2014 Rise Set
Actual Time 6:14 AM MYT 6:21 PM MYT
Civil Twilight 5:53 AM MYT 6:42 PM MYT
Nautical Twilight 5:29 AM MYT 7:06 PM MYT
Astronomical Twilight 5:05 AM MYT 7:30 PM MYT
Moon 2:15 AM MYT (9/19) 2:47 PM MYT (9/19)
Length of Visible Light 12h 48m
Length of Day
12h 07m
Tomorrow will be 0m 14s shorter.
Waning Crescent, 26% of the Moon is Illuminated
Sep 18
Waning Crescent
Sep 24
New
Oct 1
First Quarter
Oct 8
Full
Oct 15
Last Quarter

Yesterday's Extremes

Country Highs Country Lows

Community

WunderPhotos

Upload Photos

1,754,402 photos uploaded!

Nearby

Snow Depth

Not available.

Earthquake Activity

City Distance Mag. Time & Date
No recent earthquake activity has been reported nearby.
Minimum magnitude displayed is 2.5.

Coastal Water Temperatures

Place Temperature
No Stations Reporting

Nearby Weather Stations